Maryland Heights, Missouri
Current Conditions -  °F | °C
As of 7:51 PM on Thursday 20 Nov 2014 (Local Time) from KSTL Reporting Station
Clear Clear  
Wind Chill: 30°   Ceiling: Unl
Heat Index: 30°   Visibility: 10mi
Dew Point: 18°   Wind: 0mph
Humidity: 61%   Direction: NA
Pressure: 30.28"   Gusts: NA
Location:  38.72°N, 90.44°W
Report Text: KSTL 210151Z 00000KT 10SM CLR M01/M08 A3028 RMK AO2 SLP266 T10111078
Loading
Personal Weather Stations






























Interactive Weather Map New forecast layout! Learn more

10-Day Weather Forecast

Advertisements
Track Severe Weather on mobile